sensor_id;sensor_type;location;lat;lon;timestamp;P1;durP1;ratioP1;P2;durP2;ratioP2
18168;SDS011;49877;50.398;30.324;2022-08-30T00:00:03;17.03;;;12.47;;
18168;SDS011;49877;50.398;30.324;2022-08-30T00:02:52;19.43;;;12.37;;
18168;SDS011;49877;50.398;30.324;2022-08-30T00:05:19;18.47;;;12.70;;
18168;SDS011;49877;50.398;30.324;2022-08-30T00:07:46;18.90;;;13.27;;
18168;SDS011;49877;50.398;30.324;2022-08-30T00:10:14;20.00;;;13.00;;
18168;SDS011;49877;50.398;30.324;2022-08-30T00:12:41;18.60;;;12.43;;
18168;SDS011;49877;50.398;30.324;2022-08-30T00:15:09;18.30;;;12.40;;
18168;SDS011;49877;50.398;30.324;2022-08-30T00:17:38;18.27;;;13.13;;
18168;SDS011;49877;50.398;30.324;2022-08-30T00:20:08;20.30;;;12.77;;
18168;SDS011;49877;50.398;30.324;2022-08-30T00:22:37;20.30;;;12.87;;
18168;SDS011;49877;50.398;30.324;2022-08-30T00:25:04;16.83;;;12.50;;
18168;SDS011;49877;50.398;30.324;2022-08-30T00:27:32;20.57;;;13.30;;
18168;SDS011;49877;50.398;30.324;2022-08-30T00:29:59;20.30;;;13.17;;
18168;SDS011;49877;50.398;30.324;2022-08-30T00:32:26;18.60;;;13.10;;
18168;SDS011;49877;50.398;30.324;2022-08-30T00:34:53;17.57;;;12.13;;
18168;SDS011;49877;50.398;30.324;2022-08-30T00:37:22;17.93;;;12.43;;
18168;SDS011;49877;50.398;30.324;2022-08-30T00:39:49;17.20;;;12.40;;
18168;SDS011;49877;50.398;30.324;2022-08-30T00:42:16;19.30;;;13.23;;
18168;SDS011;49877;50.398;30.324;2022-08-30T00:44:46;18.10;;;11.90;;
18168;SDS011;49877;50.398;30.324;2022-08-30T00:47:13;18.10;;;12.43;;
18168;SDS011;49877;50.398;30.324;2022-08-30T00:49:41;17.27;;;12.00;;
18168;SDS011;49877;50.398;30.324;2022-08-30T00:52:10;18.53;;;12.43;;
18168;SDS011;49877;50.398;30.324;2022-08-30T00:54:40;21.10;;;13.03;;
18168;SDS011;49877;50.398;30.324;2022-08-30T00:57:09;15.97;;;11.77;;
18168;SDS011;49877;50.398;30.324;2022-08-30T00:59:37;18.83;;;12.30;;
18168;SDS011;49877;50.398;30.324;2022-08-30T01:02:05;19.57;;;13.10;;
18168;SDS011;49877;50.398;30.324;2022-08-30T01:04:32;20.77;;;12.83;;
18168;SDS011;49877;50.398;30.324;2022-08-30T01:07:00;21.13;;;12.67;;
18168;SDS011;49877;50.398;30.324;2022-08-30T01:09:27;19.40;;;12.97;;
18168;SDS011;49877;50.398;30.324;2022-08-30T01:11:55;16.57;;;12.63;;
18168;SDS011;49877;50.398;30.324;2022-08-30T01:14:23;16.13;;;12.33;;
18168;SDS011;49877;50.398;30.324;2022-08-30T01:16:50;18.00;;;12.27;;
18168;SDS011;49877;50.398;30.324;2022-08-30T01:19:21;18.27;;;11.83;;
18168;SDS011;49877;50.398;30.324;2022-08-30T01:21:58;18.00;;;12.97;;
18168;SDS011;49877;50.398;30.324;2022-08-30T01:24:31;19.00;;;12.60;;
18168;SDS011;49877;50.398;30.324;2022-08-30T01:26:58;16.30;;;12.57;;
18168;SDS011;49877;50.398;30.324;2022-08-30T01:29:25;19.10;;;12.57;;
18168;SDS011;49877;50.398;30.324;2022-08-30T01:31:53;18.17;;;12.77;;
18168;SDS011;49877;50.398;30.324;2022-08-30T01:34:20;18.43;;;13.27;;
18168;SDS011;49877;50.398;30.324;2022-08-30T01:36:47;21.27;;;13.23;;
18168;SDS011;49877;50.398;30.324;2022-08-30T01:39:15;19.23;;;12.53;;
18168;SDS011;49877;50.398;30.324;2022-08-30T01:41:44;23.77;;;13.57;;
18168;SDS011;49877;50.398;30.324;2022-08-30T01:44:12;15.77;;;11.87;;
18168;SDS011;49877;50.398;30.324;2022-08-30T01:46:40;19.17;;;13.30;;
18168;SDS011;49877;50.398;30.324;2022-08-30T01:49:11;18.90;;;13.60;;
18168;SDS011;49877;50.398;30.324;2022-08-30T01:51:39;17.20;;;12.60;;
18168;SDS011;49877;50.398;30.324;2022-08-30T01:54:06;18.40;;;13.03;;
18168;SDS011;49877;50.398;30.324;2022-08-30T01:56:33;19.03;;;14.10;;
18168;SDS011;49877;50.398;30.324;2022-08-30T01:59:02;17.47;;;12.87;;
18168;SDS011;49877;50.398;30.324;2022-08-30T02:01:30;16.10;;;12.57;;
18168;SDS011;49877;50.398;30.324;2022-08-30T02:03:59;16.93;;;13.00;;
18168;SDS011;49877;50.398;30.324;2022-08-30T02:06:27;17.53;;;13.33;;
18168;SDS011;49877;50.398;30.324;2022-08-30T02:08:54;18.17;;;12.80;;
18168;SDS011;49877;50.398;30.324;2022-08-30T02:11:20;20.23;;;13.60;;
18168;SDS011;49877;50.398;30.324;2022-08-30T02:13:47;18.07;;;13.80;;
18168;SDS011;49877;50.398;30.324;2022-08-30T02:16:16;18.87;;;13.17;;
18168;SDS011;49877;50.398;30.324;2022-08-30T02:18:47;21.37;;;14.53;;
18168;SDS011;49877;50.398;30.324;2022-08-30T02:21:14;18.83;;;13.90;;
18168;SDS011;49877;50.398;30.324;2022-08-30T02:23:41;18.60;;;13.00;;
18168;SDS011;49877;50.398;30.324;2022-08-30T02:26:08;18.63;;;13.30;;
18168;SDS011;49877;50.398;30.324;2022-08-30T02:28:36;21.47;;;14.23;;
18168;SDS011;49877;50.398;30.324;2022-08-30T02:31:03;25.57;;;16.17;;
18168;SDS011;49877;50.398;30.324;2022-08-30T02:33:31;19.70;;;14.73;;
18168;SDS011;49877;50.398;30.324;2022-08-30T02:35:58;22.53;;;14.90;;
18168;SDS011;49877;50.398;30.324;2022-08-30T02:38:25;21.20;;;15.33;;
18168;SDS011;49877;50.398;30.324;2022-08-30T02:40:52;20.13;;;14.43;;
18168;SDS011;49877;50.398;30.324;2022-08-30T02:43:19;21.07;;;15.00;;
18168;SDS011;49877;50.398;30.324;2022-08-30T02:45:46;19.80;;;14.17;;
18168;SDS011;49877;50.398;30.324;2022-08-30T02:48:13;20.13;;;14.73;;
18168;SDS011;49877;50.398;30.324;2022-08-30T02:50:42;19.97;;;15.00;;
18168;SDS011;49877;50.398;30.324;2022-08-30T02:53:10;21.23;;;14.57;;
18168;SDS011;49877;50.398;30.324;2022-08-30T02:55:38;17.87;;;13.60;;
18168;SDS011;49877;50.398;30.324;2022-08-30T02:58:05;23.63;;;14.37;;
18168;SDS011;49877;50.398;30.324;2022-08-30T03:00:33;20.40;;;14.43;;
18168;SDS011;49877;50.398;30.324;2022-08-30T03:03:00;19.57;;;14.37;;
18168;SDS011;49877;50.398;30.324;2022-08-30T03:05:28;20.70;;;15.03;;
18168;SDS011;49877;50.398;30.324;2022-08-30T03:07:56;18.30;;;14.60;;
18168;SDS011;49877;50.398;30.324;2022-08-30T03:10:24;23.40;;;16.27;;
18168;SDS011;49877;50.398;30.324;2022-08-30T03:12:52;21.10;;;14.40;;
18168;SDS011;49877;50.398;30.324;2022-08-30T03:15:19;23.77;;;15.40;;
18168;SDS011;49877;50.398;30.324;2022-08-30T03:17:49;20.70;;;15.23;;
18168;SDS011;49877;50.398;30.324;2022-08-30T03:20:17;21.07;;;15.93;;
18168;SDS011;49877;50.398;30.324;2022-08-30T03:22:44;23.03;;;16.27;;
18168;SDS011;49877;50.398;30.324;2022-08-30T03:25:13;23.27;;;16.77;;
18168;SDS011;49877;50.398;30.324;2022-08-30T03:27:40;21.07;;;16.23;;
18168;SDS011;49877;50.398;30.324;2022-08-30T03:30:08;21.27;;;16.83;;
18168;SDS011;49877;50.398;30.324;2022-08-30T03:32:36;23.20;;;16.93;;
18168;SDS011;49877;50.398;30.324;2022-08-30T03:35:03;25.83;;;17.10;;
18168;SDS011;49877;50.398;30.324;2022-08-30T03:37:31;21.53;;;16.23;;
18168;SDS011;49877;50.398;30.324;2022-08-30T03:39:58;25.53;;;16.80;;
18168;SDS011;49877;50.398;30.324;2022-08-30T03:42:27;22.00;;;16.90;;
18168;SDS011;49877;50.398;30.324;2022-08-30T03:44:54;24.57;;;17.70;;
18168;SDS011;49877;50.398;30.324;2022-08-30T03:47:20;25.57;;;18.00;;
18168;SDS011;49877;50.398;30.324;2022-08-30T03:49:47;23.37;;;16.70;;
18168;SDS011;49877;50.398;30.324;2022-08-30T03:52:14;26.80;;;17.27;;
18168;SDS011;49877;50.398;30.324;2022-08-30T03:54:41;21.97;;;16.80;;
18168;SDS011;49877;50.398;30.324;2022-08-30T03:57:08;21.73;;;16.20;;
18168;SDS011;49877;50.398;30.324;2022-08-30T03:59:36;25.07;;;16.73;;
18168;SDS011;49877;50.398;30.324;2022-08-30T04:02:03;23.17;;;15.73;;
18168;SDS011;49877;50.398;30.324;2022-08-30T04:04:30;23.87;;;17.27;;
18168;SDS011;49877;50.398;30.324;2022-08-30T04:06:58;20.70;;;16.27;;
18168;SDS011;49877;50.398;30.324;2022-08-30T04:09:24;21.30;;;16.33;;
18168;SDS011;49877;50.398;30.324;2022-08-30T04:11:51;22.40;;;16.37;;
18168;SDS011;49877;50.398;30.324;2022-08-30T04:14:18;21.93;;;16.37;;
18168;SDS011;49877;50.398;30.324;2022-08-30T04:16:48;21.40;;;15.57;;
18168;SDS011;49877;50.398;30.324;2022-08-30T04:19:15;21.20;;;14.20;;
18168;SDS011;49877;50.398;30.324;2022-08-30T04:21:42;22.47;;;14.43;;
18168;SDS011;49877;50.398;30.324;2022-08-30T04:24:09;18.63;;;14.20;;
18168;SDS011;49877;50.398;30.324;2022-08-30T04:26:36;18.13;;;13.83;;
18168;SDS011;49877;50.398;30.324;2022-08-30T04:29:03;18.10;;;14.47;;
18168;SDS011;49877;50.398;30.324;2022-08-30T04:31:30;19.83;;;13.67;;
18168;SDS011;49877;50.398;30.324;2022-08-30T04:33:59;16.93;;;13.23;;
18168;SDS011;49877;50.398;30.324;2022-08-30T04:36:26;19.50;;;14.17;;
18168;SDS011;49877;50.398;30.324;2022-08-30T04:38:52;17.87;;;13.03;;
18168;SDS011;49877;50.398;30.324;2022-08-30T04:41:19;15.47;;;12.13;;
18168;SDS011;49877;50.398;30.324;2022-08-30T04:43:48;16.07;;;12.90;;
18168;SDS011;49877;50.398;30.324;2022-08-30T04:46:16;15.43;;;11.83;;
18168;SDS011;49877;50.398;30.324;2022-08-30T04:48:43;16.47;;;12.23;;
18168;SDS011;49877;50.398;30.324;2022-08-30T04:51:13;15.90;;;11.20;;
18168;SDS011;49877;50.398;30.324;2022-08-30T04:53:42;16.20;;;11.97;;
18168;SDS011;49877;50.398;30.324;2022-08-30T04:56:10;14.23;;;11.50;;
18168;SDS011;49877;50.398;30.324;2022-08-30T04:58:40;16.40;;;12.03;;
18168;SDS011;49877;50.398;30.324;2022-08-30T05:01:10;15.20;;;11.33;;
18168;SDS011;49877;50.398;30.324;2022-08-30T05:03:38;14.57;;;10.23;;
18168;SDS011;49877;50.398;30.324;2022-08-30T05:06:05;13.53;;;9.67;;
18168;SDS011;49877;50.398;30.324;2022-08-30T05:08:34;13.03;;;9.53;;
18168;SDS011;49877;50.398;30.324;2022-08-30T05:11:02;14.13;;;9.90;;
18168;SDS011;49877;50.398;30.324;2022-08-30T05:13:30;13.60;;;9.87;;
18168;SDS011;49877;50.398;30.324;2022-08-30T05:15:57;10.80;;;9.27;;
18168;SDS011;49877;50.398;30.324;2022-08-30T05:18:25;10.93;;;8.63;;
18168;SDS011;49877;50.398;30.324;2022-08-30T05:21:01;11.00;;;8.80;;
18168;SDS011;49877;50.398;30.324;2022-08-30T05:23:29;11.50;;;8.60;;
18168;SDS011;49877;50.398;30.324;2022-08-30T05:25:57;13.20;;;9.13;;
18168;SDS011;49877;50.398;30.324;2022-08-30T05:28:24;12.70;;;8.77;;
18168;SDS011;49877;50.398;30.324;2022-08-30T05:30:51;11.33;;;7.77;;
18168;SDS011;49877;50.398;30.324;2022-08-30T05:33:18;10.60;;;7.80;;
18168;SDS011;49877;50.398;30.324;2022-08-30T05:35:45;10.67;;;8.10;;
18168;SDS011;49877;50.398;30.324;2022-08-30T05:38:12;9.17;;;7.30;;
18168;SDS011;49877;50.398;30.324;2022-08-30T05:40:39;10.60;;;7.27;;
18168;SDS011;49877;50.398;30.324;2022-08-30T05:43:07;8.90;;;7.47;;
18168;SDS011;49877;50.398;30.324;2022-08-30T05:45:35;10.00;;;7.60;;
18168;SDS011;49877;50.398;30.324;2022-08-30T05:48:02;10.57;;;7.17;;
18168;SDS011;49877;50.398;30.324;2022-08-30T05:50:29;9.43;;;7.83;;
18168;SDS011;49877;50.398;30.324;2022-08-30T05:52:56;8.87;;;7.40;;
18168;SDS011;49877;50.398;30.324;2022-08-30T05:55:23;8.63;;;7.23;;
18168;SDS011;49877;50.398;30.324;2022-08-30T05:57:50;8.83;;;7.13;;
18168;SDS011;49877;50.398;30.324;2022-08-30T06:00:20;9.13;;;7.07;;
18168;SDS011;49877;50.398;30.324;2022-08-30T06:02:47;8.60;;;6.80;;
18168;SDS011;49877;50.398;30.324;2022-08-30T06:05:18;7.43;;;6.13;;
18168;SDS011;49877;50.398;30.324;2022-08-30T06:07:45;7.30;;;6.03;;
18168;SDS011;49877;50.398;30.324;2022-08-30T06:10:13;8.70;;;6.60;;
18168;SDS011;49877;50.398;30.324;2022-08-30T06:12:40;9.93;;;6.90;;
18168;SDS011;49877;50.398;30.324;2022-08-30T06:15:07;9.80;;;6.77;;
18168;SDS011;49877;50.398;30.324;2022-08-30T06:17:36;7.87;;;5.97;;
18168;SDS011;49877;50.398;30.324;2022-08-30T06:20:04;9.07;;;6.03;;
18168;SDS011;49877;50.398;30.324;2022-08-30T06:22:32;8.47;;;6.13;;
18168;SDS011;49877;50.398;30.324;2022-08-30T06:24:59;8.70;;;6.00;;
18168;SDS011;49877;50.398;30.324;2022-08-30T06:27:25;8.30;;;5.73;;
18168;SDS011;49877;50.398;30.324;2022-08-30T06:29:52;9.67;;;5.70;;
18168;SDS011;49877;50.398;30.324;2022-08-30T06:32:19;6.67;;;4.97;;
18168;SDS011;49877;50.398;30.324;2022-08-30T06:34:48;6.57;;;4.50;;
18168;SDS011;49877;50.398;30.324;2022-08-30T06:37:15;5.30;;;4.33;;
18168;SDS011;49877;50.398;30.324;2022-08-30T06:39:42;9.97;;;5.10;;
18168;SDS011;49877;50.398;30.324;2022-08-30T06:42:09;6.40;;;4.73;;
18168;SDS011;49877;50.398;30.324;2022-08-30T06:44:35;6.70;;;4.50;;
18168;SDS011;49877;50.398;30.324;2022-08-30T06:47:03;9.90;;;5.13;;
18168;SDS011;49877;50.398;30.324;2022-08-30T06:49:30;7.47;;;4.90;;
18168;SDS011;49877;50.398;30.324;2022-08-30T06:51:58;7.70;;;4.80;;
18168;SDS011;49877;50.398;30.324;2022-08-30T06:54:25;6.50;;;4.93;;
18168;SDS011;49877;50.398;30.324;2022-08-30T06:56:52;5.70;;;4.07;;
18168;SDS011;49877;50.398;30.324;2022-08-30T06:59:19;6.30;;;4.37;;
18168;SDS011;49877;50.398;30.324;2022-08-30T07:01:46;7.17;;;4.30;;
18168;SDS011;49877;50.398;30.324;2022-08-30T07:04:13;5.10;;;4.37;;
18168;SDS011;49877;50.398;30.324;2022-08-30T07:06:40;5.53;;;3.97;;
18168;SDS011;49877;50.398;30.324;2022-08-30T07:09:08;6.53;;;4.00;;
18168;SDS011;49877;50.398;30.324;2022-08-30T07:11:36;7.37;;;4.33;;
18168;SDS011;49877;50.398;30.324;2022-08-30T07:14:04;7.70;;;4.17;;
18168;SDS011;49877;50.398;30.324;2022-08-30T07:16:32;5.73;;;3.93;;
18168;SDS011;49877;50.398;30.324;2022-08-30T07:19:00;5.10;;;3.57;;
18168;SDS011;49877;50.398;30.324;2022-08-30T07:21:28;7.00;;;4.27;;
18168;SDS011;49877;50.398;30.324;2022-08-30T07:23:58;6.23;;;3.80;;
18168;SDS011;49877;50.398;30.324;2022-08-30T07:26:28;6.07;;;3.70;;
18168;SDS011;49877;50.398;30.324;2022-08-30T07:28:58;6.73;;;3.60;;
18168;SDS011;49877;50.398;30.324;2022-08-30T07:31:25;5.77;;;3.80;;
18168;SDS011;49877;50.398;30.324;2022-08-30T07:33:53;6.00;;;3.60;;
18168;SDS011;49877;50.398;30.324;2022-08-30T07:36:21;6.23;;;3.80;;
18168;SDS011;49877;50.398;30.324;2022-08-30T07:38:48;8.63;;;4.20;;
18168;SDS011;49877;50.398;30.324;2022-08-30T07:41:17;7.43;;;3.67;;
18168;SDS011;49877;50.398;30.324;2022-08-30T07:43:47;6.57;;;3.87;;
18168;SDS011;49877;50.398;30.324;2022-08-30T07:46:14;6.60;;;3.50;;
18168;SDS011;49877;50.398;30.324;2022-08-30T07:48:41;6.50;;;3.53;;
18168;SDS011;49877;50.398;30.324;2022-08-30T07:51:09;8.60;;;3.77;;
18168;SDS011;49877;50.398;30.324;2022-08-30T07:53:37;5.20;;;3.67;;
18168;SDS011;49877;50.398;30.324;2022-08-30T07:56:05;5.83;;;3.87;;
18168;SDS011;49877;50.398;30.324;2022-08-30T07:58:32;7.73;;;3.70;;
18168;SDS011;49877;50.398;30.324;2022-08-30T08:01:02;7.17;;;3.70;;
18168;SDS011;49877;50.398;30.324;2022-08-30T08:03:30;11.03;;;3.70;;
18168;SDS011;49877;50.398;30.324;2022-08-30T08:05:59;5.27;;;3.50;;
18168;SDS011;49877;50.398;30.324;2022-08-30T08:08:27;7.40;;;3.57;;
18168;SDS011;49877;50.398;30.324;2022-08-30T08:10:54;5.80;;;3.67;;
18168;SDS011;49877;50.398;30.324;2022-08-30T08:13:21;6.30;;;3.67;;
18168;SDS011;49877;50.398;30.324;2022-08-30T08:15:48;5.57;;;3.70;;
18168;SDS011;49877;50.398;30.324;2022-08-30T08:18:17;5.70;;;4.10;;
18168;SDS011;49877;50.398;30.324;2022-08-30T08:20:44;6.67;;;3.90;;
18168;SDS011;49877;50.398;30.324;2022-08-30T08:23:11;8.17;;;3.80;;
18168;SDS011;49877;50.398;30.324;2022-08-30T08:25:38;7.60;;;3.90;;
18168;SDS011;49877;50.398;30.324;2022-08-30T08:28:05;7.23;;;4.17;;
18168;SDS011;49877;50.398;30.324;2022-08-30T08:30:33;10.33;;;4.03;;
18168;SDS011;49877;50.398;30.324;2022-08-30T08:33:02;4.90;;;3.57;;
18168;SDS011;49877;50.398;30.324;2022-08-30T08:35:32;6.10;;;3.70;;
18168;SDS011;49877;50.398;30.324;2022-08-30T08:37:59;6.63;;;3.70;;
18168;SDS011;49877;50.398;30.324;2022-08-30T08:40:26;5.73;;;3.30;;
18168;SDS011;49877;50.398;30.324;2022-08-30T08:43:00;6.60;;;3.60;;
18168;SDS011;49877;50.398;30.324;2022-08-30T08:45:32;7.00;;;3.90;;
18168;SDS011;49877;50.398;30.324;2022-08-30T08:48:08;7.57;;;3.87;;
18168;SDS011;49877;50.398;30.324;2022-08-30T08:50:40;7.93;;;4.00;;
18168;SDS011;49877;50.398;30.324;2022-08-30T08:53:28;6.40;;;3.67;;
18168;SDS011;49877;50.398;30.324;2022-08-30T08:56:03;6.30;;;3.67;;
18168;SDS011;49877;50.398;30.324;2022-08-30T08:58:33;6.77;;;4.03;;
18168;SDS011;49877;50.398;30.324;2022-08-30T09:01:07;6.13;;;3.27;;
18168;SDS011;49877;50.398;30.324;2022-08-30T09:03:35;5.87;;;3.63;;
18168;SDS011;49877;50.398;30.324;2022-08-30T09:06:06;5.47;;;3.57;;
18168;SDS011;49877;50.398;30.324;2022-08-30T09:08:45;6.77;;;3.80;;
18168;SDS011;49877;50.398;30.324;2022-08-30T09:11:12;6.00;;;3.10;;
18168;SDS011;49877;50.398;30.324;2022-08-30T09:13:47;7.50;;;3.50;;
18168;SDS011;49877;50.398;30.324;2022-08-30T09:19:10;6.60;;;3.67;;
18168;SDS011;49877;50.398;30.324;2022-08-30T09:21:39;5.27;;;3.00;;
18168;SDS011;49877;50.398;30.324;2022-08-30T09:24:05;4.97;;;3.30;;
18168;SDS011;49877;50.398;30.324;2022-08-30T09:26:36;7.20;;;3.30;;
18168;SDS011;49877;50.398;30.324;2022-08-30T09:29:03;5.40;;;3.10;;
18168;SDS011;49877;50.398;30.324;2022-08-30T09:31:44;4.80;;;3.30;;
18168;SDS011;49877;50.398;30.324;2022-08-30T09:34:15;3.87;;;3.00;;
18168;SDS011;49877;50.398;30.324;2022-08-30T09:36:46;5.53;;;3.07;;
18168;SDS011;49877;50.398;30.324;2022-08-30T09:39:16;9.40;;;2.93;;
18168;SDS011;49877;50.398;30.324;2022-08-30T09:41:45;3.60;;;2.70;;
18168;SDS011;49877;50.398;30.324;2022-08-30T09:44:15;6.63;;;2.90;;
18168;SDS011;49877;50.398;30.324;2022-08-30T09:46:44;5.20;;;3.13;;
18168;SDS011;49877;50.398;30.324;2022-08-30T09:49:30;3.80;;;2.80;;
18168;SDS011;49877;50.398;30.324;2022-08-30T09:52:08;5.53;;;2.90;;
18168;SDS011;49877;50.398;30.324;2022-08-30T09:54:43;8.00;;;3.10;;
18168;SDS011;49877;50.398;30.324;2022-08-30T09:57:21;4.07;;;3.00;;
18168;SDS011;49877;50.398;30.324;2022-08-30T09:59:55;4.07;;;2.77;;
18168;SDS011;49877;50.398;30.324;2022-08-30T10:02:30;4.73;;;2.67;;
18168;SDS011;49877;50.398;30.324;2022-08-30T10:05:19;3.60;;;2.83;;
18168;SDS011;49877;50.398;30.324;2022-08-30T10:07:55;7.50;;;2.73;;
18168;SDS011;49877;50.398;30.324;2022-08-30T10:10:32;7.03;;;3.00;;
18168;SDS011;49877;50.398;30.324;2022-08-30T10:13:13;6.80;;;2.80;;
18168;SDS011;49877;50.398;30.324;2022-08-30T10:15:54;5.18;;;2.70;;
18168;SDS011;49877;50.398;30.324;2022-08-30T10:18:28;4.85;;;2.95;;
18168;SDS011;49877;50.398;30.324;2022-08-30T10:21:02;5.95;;;3.17;;
18168;SDS011;49877;50.398;30.324;2022-08-30T10:23:37;3.72;;;2.70;;
18168;SDS011;49877;50.398;30.324;2022-08-30T10:26:10;4.70;;;2.77;;
18168;SDS011;49877;50.398;30.324;2022-08-30T10:28:45;3.53;;;2.87;;
18168;SDS011;49877;50.398;30.324;2022-08-30T10:31:17;5.27;;;2.97;;
18168;SDS011;49877;50.398;30.324;2022-08-30T10:33:52;4.23;;;2.70;;
18168;SDS011;49877;50.398;30.324;2022-08-30T10:36:25;5.00;;;2.80;;
18168;SDS011;49877;50.398;30.324;2022-08-30T10:38:58;3.75;;;2.75;;
18168;SDS011;49877;50.398;30.324;2022-08-30T10:41:31;4.57;;;2.60;;
18168;SDS011;49877;50.398;30.324;2022-08-30T10:44:02;5.00;;;2.70;;
18168;SDS011;49877;50.398;30.324;2022-08-30T10:46:33;6.68;;;2.97;;
18168;SDS011;49877;50.398;30.324;2022-08-30T10:49:07;4.85;;;2.95;;
18168;SDS011;49877;50.398;30.324;2022-08-30T10:51:41;5.78;;;2.88;;
18168;SDS011;49877;50.398;30.324;2022-08-30T10:54:17;5.13;;;2.70;;
18168;SDS011;49877;50.398;30.324;2022-08-30T10:56:49;4.07;;;2.50;;
18168;SDS011;49877;50.398;30.324;2022-08-30T10:59:18;8.30;;;2.85;;
18168;SDS011;49877;50.398;30.324;2022-08-30T11:01:54;3.63;;;2.67;;
18168;SDS011;49877;50.398;30.324;2022-08-30T11:04:48;3.92;;;2.70;;
18168;SDS011;49877;50.398;30.324;2022-08-30T11:07:32;8.80;;;3.25;;
18168;SDS011;49877;50.398;30.324;2022-08-30T11:10:16;6.40;;;2.67;;
18168;SDS011;49877;50.398;30.324;2022-08-30T11:12:58;4.25;;;2.55;;
18168;SDS011;49877;50.398;30.324;2022-08-30T11:15:29;4.72;;;2.65;;
18168;SDS011;49877;50.398;30.324;2022-08-30T11:17:59;4.47;;;3.00;;
18168;SDS011;49877;50.398;30.324;2022-08-30T11:20:31;6.97;;;2.70;;
18168;SDS011;49877;50.398;30.324;2022-08-30T11:23:23;3.53;;;2.58;;
18168;SDS011;49877;50.398;30.324;2022-08-30T11:25:57;4.07;;;2.38;;
18168;SDS011;49877;50.398;30.324;2022-08-30T11:31:38;4.93;;;2.60;;
18168;SDS011;49877;50.398;30.324;2022-08-30T11:34:07;2.90;;;2.38;;
18168;SDS011;49877;50.398;30.324;2022-08-30T11:42:28;4.95;;;2.60;;
18168;SDS011;49877;50.398;30.324;2022-08-30T11:54:15;4.57;;;2.65;;
18168;SDS011;49877;50.398;30.324;2022-08-30T11:56:53;4.32;;;2.80;;
18168;SDS011;49877;50.398;30.324;2022-08-30T11:59:30;4.28;;;2.42;;
18168;SDS011;49877;50.398;30.324;2022-08-30T12:02:04;4.75;;;2.60;;
18168;SDS011;49877;50.398;30.324;2022-08-30T12:04:40;8.15;;;2.40;;
18168;SDS011;49877;50.398;30.324;2022-08-30T12:07:11;5.07;;;2.53;;
18168;SDS011;49877;50.398;30.324;2022-08-30T12:10:20;5.20;;;2.35;;
18168;SDS011;49877;50.398;30.324;2022-08-30T12:12:50;8.57;;;2.70;;
18168;SDS011;49877;50.398;30.324;2022-08-30T12:18:28;3.58;;;2.35;;
18168;SDS011;49877;50.398;30.324;2022-08-30T12:21:09;4.28;;;2.15;;
18168;SDS011;49877;50.398;30.324;2022-08-30T12:23:49;5.28;;;2.40;;
18168;SDS011;49877;50.398;30.324;2022-08-30T12:26:26;5.53;;;2.40;;
18168;SDS011;49877;50.398;30.324;2022-08-30T12:29:08;3.40;;;2.15;;
18168;SDS011;49877;50.398;30.324;2022-08-30T12:31:41;7.10;;;2.80;;
18168;SDS011;49877;50.398;30.324;2022-08-30T12:34:19;8.02;;;2.60;;
18168;SDS011;49877;50.398;30.324;2022-08-30T12:36:51;6.07;;;2.70;;
18168;SDS011;49877;50.398;30.324;2022-08-30T12:39:22;4.93;;;2.47;;
18168;SDS011;49877;50.398;30.324;2022-08-30T12:41:51;4.88;;;2.70;;
18168;SDS011;49877;50.398;30.324;2022-08-30T12:44:19;6.65;;;2.58;;
18168;SDS011;49877;50.398;30.324;2022-08-30T12:46:49;5.68;;;2.40;;
18168;SDS011;49877;50.398;30.324;2022-08-30T12:49:20;5.38;;;2.63;;
18168;SDS011;49877;50.398;30.324;2022-08-30T12:51:51;3.20;;;2.45;;
18168;SDS011;49877;50.398;30.324;2022-08-30T12:54:20;3.40;;;2.50;;
18168;SDS011;49877;50.398;30.324;2022-08-30T12:56:53;3.97;;;2.55;;
18168;SDS011;49877;50.398;30.324;2022-08-30T12:59:42;5.32;;;2.60;;
18168;SDS011;49877;50.398;30.324;2022-08-30T13:02:12;4.40;;;2.38;;
18168;SDS011;49877;50.398;30.324;2022-08-30T13:04:43;3.22;;;2.30;;
18168;SDS011;49877;50.398;30.324;2022-08-30T13:07:22;3.35;;;2.33;;
18168;SDS011;49877;50.398;30.324;2022-08-30T13:10:02;4.25;;;2.60;;
18168;SDS011;49877;50.398;30.324;2022-08-30T13:12:31;3.50;;;2.70;;
18168;SDS011;49877;50.398;30.324;2022-08-30T13:15:16;3.55;;;2.30;;
18168;SDS011;49877;50.398;30.324;2022-08-30T13:17:44;5.28;;;2.40;;
18168;SDS011;49877;50.398;30.324;2022-08-30T13:20:25;4.63;;;2.40;;
18168;SDS011;49877;50.398;30.324;2022-08-30T13:22:59;3.70;;;2.22;;
18168;SDS011;49877;50.398;30.324;2022-08-30T13:25:31;4.70;;;2.47;;
18168;SDS011;49877;50.398;30.324;2022-08-30T13:27:59;4.80;;;2.25;;
18168;SDS011;49877;50.398;30.324;2022-08-30T13:30:26;5.03;;;2.42;;
18168;SDS011;49877;50.398;30.324;2022-08-30T13:32:54;4.45;;;2.30;;
18168;SDS011;49877;50.398;30.324;2022-08-30T13:35:21;9.35;;;2.88;;
18168;SDS011;49877;50.398;30.324;2022-08-30T13:37:49;3.10;;;2.30;;
18168;SDS011;49877;50.398;30.324;2022-08-30T13:40:17;9.23;;;2.78;;
18168;SDS011;49877;50.398;30.324;2022-08-30T13:42:45;4.05;;;2.85;;
18168;SDS011;49877;50.398;30.324;2022-08-30T13:45:15;3.60;;;2.60;;
18168;SDS011;49877;50.398;30.324;2022-08-30T13:47:44;5.82;;;2.70;;
18168;SDS011;49877;50.398;30.324;2022-08-30T13:50:12;7.88;;;2.92;;
18168;SDS011;49877;50.398;30.324;2022-08-30T13:52:39;6.47;;;2.63;;
18168;SDS011;49877;50.398;30.324;2022-08-30T13:55:08;3.42;;;2.35;;
18168;SDS011;49877;50.398;30.324;2022-08-30T13:57:36;4.90;;;2.70;;
18168;SDS011;49877;50.398;30.324;2022-08-30T14:00:04;6.07;;;2.60;;
18168;SDS011;49877;50.398;30.324;2022-08-30T14:02:33;4.00;;;2.50;;
18168;SDS011;49877;50.398;30.324;2022-08-30T14:05:00;5.93;;;2.20;;
18168;SDS011;49877;50.398;30.324;2022-08-30T14:07:27;7.35;;;2.78;;
18168;SDS011;49877;50.398;30.324;2022-08-30T14:09:54;4.50;;;2.40;;
18168;SDS011;49877;50.398;30.324;2022-08-30T14:12:22;6.35;;;2.45;;
18168;SDS011;49877;50.398;30.324;2022-08-30T14:14:49;4.38;;;2.40;;
18168;SDS011;49877;50.398;30.324;2022-08-30T14:17:16;5.32;;;2.90;;
18168;SDS011;49877;50.398;30.324;2022-08-30T14:19:43;5.85;;;2.97;;
18168;SDS011;49877;50.398;30.324;2022-08-30T14:22:09;3.42;;;2.20;;
18168;SDS011;49877;50.398;30.324;2022-08-30T14:24:36;5.13;;;2.75;;
18168;SDS011;49877;50.398;30.324;2022-08-30T14:27:03;4.57;;;2.08;;
18168;SDS011;49877;50.398;30.324;2022-08-30T14:29:32;3.33;;;2.42;;
18168;SDS011;49877;50.398;30.324;2022-08-30T14:32:00;2.90;;;2.60;;
18168;SDS011;49877;50.398;30.324;2022-08-30T14:34:27;5.30;;;2.60;;
18168;SDS011;49877;50.398;30.324;2022-08-30T14:36:55;3.78;;;2.50;;
18168;SDS011;49877;50.398;30.324;2022-08-30T14:39:22;3.65;;;2.42;;
18168;SDS011;49877;50.398;30.324;2022-08-30T14:41:50;4.35;;;2.40;;
18168;SDS011;49877;50.398;30.324;2022-08-30T14:44:20;5.32;;;2.40;;
18168;SDS011;49877;50.398;30.324;2022-08-30T14:46:49;7.72;;;2.70;;
18168;SDS011;49877;50.398;30.324;2022-08-30T14:49:16;3.80;;;2.38;;
18168;SDS011;49877;50.398;30.324;2022-08-30T14:51:43;3.53;;;2.50;;
18168;SDS011;49877;50.398;30.324;2022-08-30T14:54:14;3.08;;;2.05;;
18168;SDS011;49877;50.398;30.324;2022-08-30T14:56:41;4.15;;;2.42;;
18168;SDS011;49877;50.398;30.324;2022-08-30T14:59:08;5.88;;;2.90;;
18168;SDS011;49877;50.398;30.324;2022-08-30T15:01:36;3.95;;;2.40;;
18168;SDS011;49877;50.398;30.324;2022-08-30T15:04:06;3.38;;;2.60;;